Illizi, Takhamalt Airport (DAAP)

NameTakhamalt Airport
CityIllizi
CountryAlgeria
ICAODAAP
IATAVVZ
Altitude165 m
CoordinatesGoogle Map
Live Air TrafficLiveATC.net
METARDAAP 251700Z 15006KT 8000 FEW040 SCT080 36/08 Q1007
2020-04-25 17:00:00 Wind: Southeast (150°) 3.09 m/s - Visibility: 8000 m - Temperature: 36 °C - Dew point: 8 °C - Humidity: 17.8% - Pressure: 1007 hPa

Sorry, no flights used the airport in this database.